createdAt,value
2022-10-05T00:02:55.802Z,96.16
2022-10-05T00:05:58.067Z,97.47
2022-10-05T00:09:01.211Z,97.44
2022-10-05T00:12:26.091Z,97.52
2022-10-05T00:15:29.336Z,96.64
2022-10-05T00:18:32.812Z,96.30
2022-10-05T00:21:35.042Z,95.85
2022-10-05T00:24:37.961Z,95.84
2022-10-05T00:27:41.407Z,96.28
2022-10-05T00:30:43.631Z,96.84
2022-10-05T00:33:46.869Z,97.60
2022-10-05T00:36:49.626Z,97.02
2022-10-05T00:39:52.596Z,96.82
2022-10-05T00:43:10.175Z,96.85
2022-10-05T00:46:21.241Z,96.26
2022-10-05T00:49:51.351Z,96.29
2022-10-05T00:52:56.475Z,96.32
2022-10-05T00:55:58.659Z,95.59
2022-10-05T00:59:09.853Z,95.44
2022-10-05T01:02:23.065Z,95.61
2022-10-05T01:05:39.894Z,95.71
2022-10-05T01:08:48.356Z,96.39
2022-10-05T01:12:00.251Z,96.63
2022-10-05T01:15:12.527Z,96.24
2022-10-05T01:18:46.909Z,96.25
2022-10-05T01:22:05.461Z,96.08
2022-10-05T01:25:38.344Z,95.45
2022-10-05T01:28:55.888Z,95.33
2022-10-05T01:32:45.975Z,95.45
2022-10-05T01:36:11.960Z,98.58
2022-10-05T01:39:19.883Z,99.22
2022-10-05T01:42:30.286Z,98.89
2022-10-05T01:45:32.450Z,98.01
2022-10-05T01:48:52.644Z,97.53
2022-10-05T01:52:22.922Z,97.03
2022-10-05T01:55:37.649Z,96.93
2022-10-05T01:58:51.727Z,96.46
2022-10-05T02:02:00.287Z,97.25
2022-10-05T02:05:16.887Z,98.22
2022-10-05T02:08:29.391Z,98.06
2022-10-05T02:11:32.958Z,97.75
2022-10-05T02:14:44.336Z,97.72
2022-10-05T02:17:50.379Z,97.72
2022-10-05T02:20:57.205Z,97.77
2022-10-05T02:24:07.013Z,98.15
2022-10-05T02:27:11.293Z,98.15
2022-10-05T02:30:16.912Z,98.44
2022-10-05T02:33:29.100Z,98.99
2022-10-05T02:36:36.401Z,98.81
2022-10-05T02:40:04.789Z,98.87
2022-10-05T02:43:38.994Z,98.84
2022-10-05T02:46:56.043Z,98.77
2022-10-05T02:50:27.330Z,99.16
2022-10-05T02:53:30.669Z,99.28
2022-10-05T02:57:21.145Z,99.02
2022-10-05T03:00:30.352Z,98.34
2022-10-05T03:03:51.876Z,98.10
2022-10-05T03:07:15.085Z,97.96
2022-10-05T03:10:42.384Z,97.35
2022-10-05T03:14:14.209Z,98.22
2022-10-05T03:17:22.350Z,99.09
2022-10-05T03:20:41.893Z,99.51
2022-10-05T03:24:18.304Z,98.69
2022-10-05T03:27:33.586Z,97.87
2022-10-05T03:30:59.918Z,98.41
2022-10-05T03:34:11.519Z,98.40
2022-10-05T03:37:42.244Z,98.43
2022-10-05T03:40:53.837Z,97.69
2022-10-05T03:43:59.322Z,97.59
2022-10-05T03:47:11.482Z,97.45
2022-10-05T03:50:32.287Z,98.01
2022-10-05T03:53:47.327Z,97.89
2022-10-05T03:56:57.100Z,97.97
2022-10-05T04:00:14.832Z,99.33
2022-10-05T04:03:30.232Z,99.00
2022-10-05T04:06:46.083Z,98.49
2022-10-05T04:09:53.075Z,98.14
2022-10-05T04:13:04.787Z,97.92
2022-10-05T04:16:41.904Z,97.48
2022-10-05T04:19:52.970Z,98.79
2022-10-05T04:23:07.889Z,98.66
2022-10-05T04:26:15.608Z,98.81
2022-10-05T04:29:36.173Z,98.86
2022-10-05T04:33:12.661Z,98.66
2022-10-05T04:36:21.524Z,97.72
2022-10-05T04:39:42.628Z,97.74
2022-10-05T04:43:10.394Z,97.88
2022-10-05T04:46:19.090Z,98.15
2022-10-05T04:49:34.202Z,97.93
2022-10-05T04:53:30.567Z,97.64
2022-10-05T04:56:38.756Z,97.66
2022-10-05T04:59:41.689Z,97.75
2022-10-05T05:02:55.717Z,97.64
2022-10-05T05:06:17.215Z,97.15
2022-10-05T05:09:44.585Z,96.81
2022-10-05T05:13:08.443Z,96.72
2022-10-05T05:16:16.203Z,97.13
2022-10-05T05:19:37.533Z,97.65
2022-10-05T05:22:52.213Z,97.17
2022-10-05T05:26:00.339Z,96.54
2022-10-05T05:29:14.617Z,95.54
2022-10-05T05:32:27.213Z,93.59
2022-10-05T05:35:36.476Z,92.25
2022-10-05T05:39:01.705Z,91.14
2022-10-05T05:42:21.325Z,89.56
2022-10-05T05:45:45.218Z,87.83
2022-10-05T05:48:51.768Z,85.96
2022-10-05T05:52:05.100Z,85.40
2022-10-05T05:55:25.381Z,85.08
2022-10-05T05:58:38.767Z,83.59
2022-10-05T06:01:54.051Z,82.85
2022-10-05T06:05:31.757Z,79.89
2022-10-05T06:08:41.833Z,79.03
2022-10-05T06:12:09.676Z,76.71
2022-10-05T06:15:49.498Z,74.43
2022-10-05T06:19:04.900Z,73.95
2022-10-05T06:22:12.230Z,75.02
2022-10-05T06:25:15.604Z,73.79
2022-10-05T06:28:20.514Z,73.58
2022-10-05T06:31:58.866Z,73.39
2022-10-05T06:35:18.129Z,71.98
2022-10-05T06:38:46.402Z,71.90
2022-10-05T06:42:08.113Z,71.27
2022-10-05T06:45:59.206Z,70.06
2022-10-05T06:49:31.217Z,68.51
2022-10-05T06:53:05.383Z,66.41
2022-10-05T06:56:28.152Z,66.48
2022-10-05T06:59:43.240Z,65.78
2022-10-05T07:02:58.833Z,63.32
2022-10-05T07:06:29.644Z,63.61
2022-10-05T07:09:39.418Z,63.16
2022-10-05T07:13:07.164Z,61.50
2022-10-05T07:16:09.483Z,62.35
2022-10-05T07:19:37.035Z,61.46
2022-10-05T07:22:57.628Z,65.41
2022-10-05T07:26:02.490Z,69.57
2022-10-05T07:29:21.661Z,70.08
2022-10-05T07:32:39.773Z,71.35
2022-10-05T07:36:29.960Z,71.04
2022-10-05T07:40:00.847Z,72.55
2022-10-05T07:43:21.804Z,74.11
2022-10-05T07:46:35.409Z,75.21
2022-10-05T07:49:56.549Z,77.65
2022-10-05T07:53:06.427Z,77.86
2022-10-05T07:56:21.051Z,79.01
2022-10-05T07:59:30.360Z,79.45
2022-10-05T08:02:46.092Z,79.20
2022-10-05T08:05:48.638Z,78.50
2022-10-05T08:09:02.232Z,79.04
2022-10-05T08:12:11.691Z,78.35
2022-10-05T08:15:24.112Z,76.64
2022-10-05T08:18:43.063Z,77.30
2022-10-05T08:21:55.260Z,76.13
2022-10-05T08:25:09.931Z,76.27
2022-10-05T08:28:40.005Z,74.49
2022-10-05T08:31:47.334Z,72.54
2022-10-05T08:34:59.351Z,68.91
2022-10-05T08:38:15.421Z,69.71
2022-10-05T08:41:22.804Z,67.27
2022-10-05T08:44:52.945Z,64.51
2022-10-05T08:48:05.096Z,63.35
2022-10-05T08:51:49.134Z,59.57
2022-10-05T08:55:10.081Z,55.63
2022-10-05T08:58:42.227Z,55.70
2022-10-05T09:01:53.277Z,57.26
2022-10-05T09:05:23.565Z,54.81
2022-10-05T09:08:39.127Z,58.02
2022-10-05T09:11:52.851Z,59.75
2022-10-05T09:15:26.319Z,61.79
2022-10-05T09:18:29.144Z,61.93
2022-10-05T09:22:15.185Z,61.14
2022-10-05T09:25:33.634Z,62.87
2022-10-05T09:29:09.404Z,63.79
2022-10-05T09:32:27.928Z,64.66
2022-10-05T09:36:07.489Z,64.79
2022-10-05T09:39:24.982Z,65.66
2022-10-05T09:42:45.512Z,65.65
2022-10-05T09:46:08.740Z,65.16
2022-10-05T09:49:25.419Z,64.21
2022-10-05T09:52:56.568Z,62.88
2022-10-05T09:56:30.533Z,62.10
2022-10-05T09:59:44.529Z,60.03
2022-10-05T10:02:55.902Z,56.23
2022-10-05T10:06:43.330Z,56.49
2022-10-05T10:10:06.741Z,58.75
2022-10-05T10:13:32.900Z,55.08
2022-10-05T10:16:53.674Z,57.21
2022-10-05T10:20:05.667Z,57.38
2022-10-05T10:23:16.326Z,53.06
2022-10-05T10:26:32.150Z,49.42
2022-10-05T10:29:49.496Z,48.11
2022-10-05T10:33:23.146Z,46.35
2022-10-05T10:36:40.246Z,47.73
2022-10-05T10:39:55.978Z,46.99
2022-10-05T10:43:11.487Z,43.88
2022-10-05T10:46:44.850Z,42.00
2022-10-05T10:49:51.575Z,40.96
2022-10-05T10:53:31.442Z,41.11
2022-10-05T10:56:58.532Z,39.49
2022-10-05T11:00:48.736Z,39.89
2022-10-05T11:04:40.472Z,38.40
2022-10-05T11:07:48.308Z,38.88
2022-10-05T11:11:24.123Z,38.66
2022-10-05T11:14:47.587Z,39.65
2022-10-05T11:18:04.783Z,38.26
2022-10-05T11:21:07.169Z,37.22
2022-10-05T11:24:38.985Z,39.12
2022-10-05T11:28:05.920Z,38.13
2022-10-05T11:31:42.867Z,37.61
2022-10-05T11:35:15.141Z,39.00
2022-10-05T11:38:50.556Z,41.58
2022-10-05T11:41:52.707Z,36.10
2022-10-05T11:45:19.167Z,38.56
2022-10-05T11:48:47.513Z,35.36
2022-10-05T11:51:49.906Z,34.36
2022-10-05T11:55:16.157Z,34.17
2022-10-05T11:58:46.459Z,36.20
2022-10-05T12:02:18.011Z,36.84
2022-10-05T12:05:49.807Z,35.54
2022-10-05T12:09:11.360Z,35.61
2022-10-05T12:12:27.067Z,36.91
2022-10-05T12:15:47.656Z,36.91
2022-10-05T12:19:21.988Z,34.83
2022-10-05T12:22:30.112Z,34.97
2022-10-05T12:25:48.280Z,34.46
2022-10-05T12:28:55.576Z,37.19
2022-10-05T12:31:57.733Z,37.48
2022-10-05T12:35:47.838Z,36.74
2022-10-05T12:39:04.964Z,39.15
2022-10-05T12:42:19.923Z,41.53
2022-10-05T12:45:52.602Z,42.96
2022-10-05T12:49:09.121Z,44.92
2022-10-05T12:52:23.701Z,44.02
2022-10-05T12:55:31.200Z,39.60
2022-10-05T12:59:16.591Z,39.02
2022-10-05T13:02:25.167Z,39.09
2022-10-05T13:05:35.831Z,37.88
2022-10-05T13:09:14.997Z,39.24
2022-10-05T13:12:35.375Z,37.79
2022-10-05T13:16:15.332Z,37.02
2022-10-05T13:19:20.616Z,36.93
2022-10-05T13:22:31.704Z,35.31
2022-10-05T13:25:59.647Z,36.09
2022-10-05T13:29:33.135Z,36.87
2022-10-05T13:32:40.262Z,39.68
2022-10-05T13:35:56.442Z,41.02
2022-10-05T13:39:21.972Z,44.00
2022-10-05T13:42:37.892Z,45.89
2022-10-05T13:45:56.853Z,46.88
2022-10-05T13:49:32.036Z,45.82
2022-10-05T13:52:57.996Z,44.79
2022-10-05T13:56:13.462Z,43.87
2022-10-05T13:59:20.196Z,44.96
2022-10-05T14:02:38.436Z,44.52
2022-10-05T14:05:55.877Z,45.71
2022-10-05T14:08:59.896Z,42.95
2022-10-05T14:12:04.935Z,41.67
2022-10-05T14:15:30.025Z,42.11
2022-10-05T14:18:36.270Z,41.43
2022-10-05T14:21:53.823Z,40.90
2022-10-05T14:25:02.984Z,40.44
2022-10-05T14:28:29.510Z,39.67
2022-10-05T14:31:35.867Z,39.40
2022-10-05T14:34:42.323Z,40.90
2022-10-05T14:37:58.118Z,40.17
2022-10-05T14:41:14.760Z,41.74
2022-10-05T14:44:29.802Z,41.07
2022-10-05T14:47:32.275Z,40.26
2022-10-05T14:50:48.113Z,40.10
2022-10-05T14:54:18.751Z,41.16
2022-10-05T14:57:41.151Z,43.37
2022-10-05T15:00:56.920Z,44.99
2022-10-05T15:04:08.219Z,44.97
2022-10-05T15:07:23.530Z,46.19
2022-10-05T15:10:37.804Z,49.29
2022-10-05T15:13:47.479Z,49.81
2022-10-05T15:16:52.876Z,50.37
2022-10-05T15:20:33.888Z,52.12
2022-10-05T15:23:43.005Z,52.89
2022-10-05T15:27:02.099Z,55.09
2022-10-05T15:30:15.366Z,54.03
2022-10-05T15:33:59.651Z,55.01
2022-10-05T15:37:42.837Z,56.74
2022-10-05T15:40:54.837Z,56.84
2022-10-05T15:44:20.401Z,58.50
2022-10-05T15:47:28.011Z,59.68
2022-10-05T15:50:37.378Z,62.35
2022-10-05T15:53:46.556Z,65.17
2022-10-05T15:57:02.004Z,68.18
2022-10-05T16:00:18.782Z,69.75
2022-10-05T16:03:21.552Z,70.03
2022-10-05T16:06:57.629Z,69.64
2022-10-05T16:10:13.293Z,69.43
2022-10-05T16:13:29.479Z,68.78
2022-10-05T16:16:50.085Z,69.38
2022-10-05T16:20:29.696Z,69.72
2022-10-05T16:24:10.658Z,71.87
2022-10-05T16:27:20.631Z,70.71
2022-10-05T16:30:24.344Z,71.47
2022-10-05T16:33:45.992Z,71.49
2022-10-05T16:37:18.380Z,72.53
2022-10-05T16:40:31.127Z,74.09
2022-10-05T16:43:51.238Z,73.42
2022-10-05T16:47:04.217Z,74.37
2022-10-05T16:50:30.205Z,75.10
2022-10-05T16:53:42.191Z,75.50
2022-10-05T16:56:56.302Z,76.25
2022-10-05T17:00:15.530Z,77.91
2022-10-05T17:03:34.196Z,79.12
2022-10-05T17:06:48.090Z,81.55
2022-10-05T17:09:52.926Z,81.20
2022-10-05T17:13:19.894Z,81.55
2022-10-05T17:16:58.945Z,82.12
2022-10-05T17:20:40.248Z,83.16
2022-10-05T17:24:05.584Z,83.38
2022-10-05T17:27:17.756Z,84.06
2022-10-05T17:30:58.685Z,85.45
2022-10-05T17:34:13.093Z,84.90
2022-10-05T17:38:05.394Z,85.63
2022-10-05T17:41:29.542Z,85.88
2022-10-05T17:44:31.805Z,84.46
2022-10-05T17:47:55.532Z,83.07
2022-10-05T17:51:16.424Z,82.21
2022-10-05T17:54:36.908Z,82.39
2022-10-05T17:57:39.696Z,81.73
2022-10-05T18:01:04.703Z,82.02
2022-10-05T18:04:12.687Z,81.61
2022-10-05T18:07:19.611Z,81.78
2022-10-05T18:10:24.557Z,82.13
2022-10-05T18:13:41.604Z,82.36
2022-10-05T18:17:02.664Z,83.32
2022-10-05T18:20:27.066Z,84.09
2022-10-05T18:23:35.877Z,84.60
2022-10-05T18:26:49.409Z,84.70
2022-10-05T18:30:12.191Z,85.23
2022-10-05T18:33:33.047Z,86.69
2022-10-05T18:36:55.200Z,88.87
2022-10-05T18:40:03.185Z,87.37
2022-10-05T18:43:26.690Z,87.45
2022-10-05T18:51:08.852Z,86.86
2022-10-05T18:54:31.291Z,87.33
2022-10-05T18:58:02.285Z,86.92
2022-10-05T19:01:23.368Z,86.94
2022-10-05T19:04:35.688Z,85.52
2022-10-05T19:07:50.509Z,85.78
2022-10-05T19:10:59.674Z,85.29
2022-10-05T19:14:10.724Z,86.40
2022-10-05T19:17:54.752Z,87.01
2022-10-05T19:21:17.965Z,86.98
2022-10-05T19:24:26.996Z,86.21
2022-10-05T19:28:11.034Z,87.14
2022-10-05T19:31:52.377Z,87.08
2022-10-05T19:35:13.216Z,86.57
2022-10-05T19:38:31.743Z,86.32
2022-10-05T19:41:50.596Z,86.51
2022-10-05T19:45:16.010Z,86.81
2022-10-05T19:48:40.748Z,87.79
2022-10-05T19:51:51.424Z,87.61
2022-10-05T19:55:04.669Z,88.97
2022-10-05T19:58:27.016Z,87.75
2022-10-05T20:01:36.922Z,88.01
2022-10-05T20:04:44.684Z,88.23
2022-10-05T20:07:46.896Z,88.33
2022-10-05T20:11:10.983Z,87.95
2022-10-05T20:14:13.837Z,88.66
2022-10-05T20:17:52.301Z,88.99
2022-10-05T20:20:55.350Z,88.99
2022-10-05T20:24:13.943Z,89.15
2022-10-05T20:27:35.820Z,90.62
2022-10-05T20:30:38.022Z,90.77
2022-10-05T20:33:40.507Z,91.15
2022-10-05T20:36:44.551Z,91.42
2022-10-05T20:39:47.955Z,91.51
2022-10-05T20:42:51.631Z,91.16
2022-10-05T20:45:53.850Z,91.04
2022-10-05T20:48:56.085Z,90.98
2022-10-05T20:51:59.093Z,90.92
2022-10-05T20:55:01.824Z,90.20
2022-10-05T20:58:04.097Z,89.55
2022-10-05T21:01:15.516Z,89.04
2022-10-05T21:04:23.577Z,88.56
2022-10-05T21:07:25.813Z,88.75
2022-10-05T21:10:27.944Z,88.79
2022-10-05T21:13:30.144Z,89.00
2022-10-05T21:16:34.054Z,89.36
2022-10-05T21:19:40.500Z,89.50
2022-10-05T21:22:42.743Z,90.70
2022-10-05T21:25:45.523Z,90.38
2022-10-05T21:28:47.779Z,90.75
2022-10-05T21:31:50.044Z,90.50
2022-10-05T21:34:52.270Z,90.05
2022-10-05T21:37:54.515Z,90.10
2022-10-05T21:40:56.648Z,90.88
2022-10-05T21:43:58.920Z,90.60
2022-10-05T21:47:06.964Z,91.20
2022-10-05T21:50:10.296Z,91.41
2022-10-05T21:53:15.920Z,91.36
2022-10-05T21:56:21.299Z,91.26
2022-10-05T21:59:28.453Z,91.11
2022-10-05T22:02:30.699Z,91.27
2022-10-05T22:05:32.948Z,91.28
2022-10-05T22:08:35.451Z,91.69
2022-10-05T22:11:38.320Z,91.54
2022-10-05T22:14:40.530Z,91.57
2022-10-05T22:17:43.145Z,91.32
2022-10-05T22:20:46.163Z,91.01
2022-10-05T22:23:48.799Z,91.48
2022-10-05T22:26:51.617Z,92.25
2022-10-05T22:29:55.355Z,91.93
2022-10-05T22:32:57.552Z,91.63
2022-10-05T22:36:00.376Z,91.51
2022-10-05T22:39:02.793Z,91.75
2022-10-05T22:42:05.827Z,91.90
2022-10-05T22:45:10.893Z,91.95
2022-10-05T22:48:13.140Z,92.61
2022-10-05T22:51:15.808Z,93.57
2022-10-05T22:54:18.320Z,93.02
2022-10-05T22:57:20.564Z,93.60
2022-10-05T23:00:35.191Z,93.88
2022-10-05T23:03:45.837Z,93.75
2022-10-05T23:06:48.036Z,93.79
2022-10-05T23:09:50.218Z,93.59
2022-10-05T23:13:01.072Z,93.56
2022-10-05T23:16:13.270Z,93.60
2022-10-05T23:19:15.780Z,94.21
2022-10-05T23:22:18.016Z,93.96
2022-10-05T23:25:22.137Z,93.73
2022-10-05T23:28:24.713Z,93.56
2022-10-05T23:31:30.272Z,94.48
2022-10-05T23:34:32.451Z,94.49
2022-10-05T23:37:43.158Z,94.40
2022-10-05T23:40:47.431Z,94.07
2022-10-05T23:43:49.751Z,93.02
2022-10-05T23:46:51.944Z,93.09
2022-10-05T23:49:55.411Z,93.64
2022-10-05T23:52:57.604Z,95.00
2022-10-05T23:55:59.841Z,94.93
2022-10-05T23:59:02.112Z,94.47
